Time;durP1;ratioP1;P1;durP2;ratioP2;P2;SDS_P1;SDS_P2;PMS_P1;PMS_P2;Temp;Humidity;BMP_temperature;BMP_pressure;BME280_temperature;BME280_humidity;BME280_pressure;Samples;Min_cycle;Max_cycle;Signal;HPM_P1;HPM_P2
2021/03/05 00:02:00;;;;;;;12.00;7.23;;;4.00;99.90;;;;;;5071141;28;20193;-83
2021/03/05 00:04:26;;;;;;;10.83;7.80;;;4.00;99.90;;;;;;5058362;28;20210;-83
2021/03/05 00:06:53;;;;;;;14.40;8.20;;;4.00;99.90;;;;;;5051482;28;20202;-81
2021/03/05 00:09:19;;;;;;;10.07;7.60;;;4.00;99.90;;;;;;5049932;28;20237;-82
2021/03/05 00:11:45;;;;;;;11.47;8.03;;;3.90;99.90;;;;;;5050553;28;20540;-83
2021/03/05 00:14:12;;;;;;;11.13;7.63;;;3.90;99.90;;;;;;5051189;28;20210;-82
2021/03/05 00:16:38;;;;;;;15.40;7.37;;;3.90;99.90;;;;;;5048329;28;20206;-82
2021/03/05 00:19:05;;;;;;;12.40;7.47;;;3.90;99.90;;;;;;5050678;28;20212;-82
2021/03/05 00:21:32;;;;;;;12.53;7.53;;;3.80;99.90;;;;;;5050041;28;20210;-83
2021/03/05 00:23:58;;;;;;;15.27;7.13;;;3.80;99.90;;;;;;5050536;28;20225;-81
2021/03/05 00:26:24;;;;;;;9.80;6.70;;;3.80;99.90;;;;;;5049434;28;20213;-82
2021/03/05 00:28:51;;;;;;;10.50;6.90;;;3.70;99.90;;;;;;5049290;28;20615;-82
2021/03/05 00:31:17;;;;;;;13.97;7.23;;;3.60;99.90;;;;;;5050117;28;20209;-83
2021/03/05 00:33:43;;;;;;;12.77;6.93;;;3.60;99.90;;;;;;5048989;28;20896;-83
2021/03/05 00:36:10;;;;;;;13.50;7.00;;;3.50;99.90;;;;;;5049845;28;20198;-82
2021/03/05 00:38:37;;;;;;;11.37;6.60;;;3.50;99.90;;;;;;5048915;28;20210;-81
2021/03/05 00:41:03;;;;;;;10.13;6.43;;;3.40;99.90;;;;;;5049316;28;20221;-83
2021/03/05 00:43:30;;;;;;;10.23;6.23;;;3.40;99.90;;;;;;5049349;28;20547;-82
2021/03/05 00:45:56;;;;;;;10.57;6.57;;;3.40;99.90;;;;;;5049733;28;20205;-82
2021/03/05 00:48:22;;;;;;;11.33;6.23;;;3.30;99.90;;;;;;5032062;28;20532;-80
2021/03/05 00:50:49;;;;;;;10.33;6.50;;;3.20;99.90;;;;;;5029957;28;20249;-81
2021/03/05 00:53:16;;;;;;;12.30;6.57;;;3.10;99.90;;;;;;5037775;28;20298;-82
2021/03/05 00:55:42;;;;;;;13.07;6.37;;;3.10;99.90;;;;;;5067025;28;20209;-82
2021/03/05 00:58:09;;;;;;;12.63;5.80;;;3.00;99.90;;;;;;5069044;28;20190;-82
2021/03/05 01:00:35;;;;;;;14.20;6.97;;;3.00;99.90;;;;;;5068530;28;20286;-80
2021/03/05 01:03:02;;;;;;;13.50;6.50;;;2.90;99.90;;;;;;5069650;28;20357;-81
2021/03/05 01:05:28;;;;;;;12.13;5.77;;;2.80;99.90;;;;;;5086367;28;20204;-82
2021/03/05 01:07:54;;;;;;;16.23;6.03;;;2.80;99.90;;;;;;5083302;28;20215;-80
2021/03/05 01:10:22;;;;;;;10.30;6.33;;;2.80;99.90;;;;;;5081527;28;20212;-81
2021/03/05 01:12:48;;;;;;;11.03;5.93;;;2.70;99.90;;;;;;5043879;28;20210;-81
2021/03/05 01:15:15;;;;;;;10.53;5.57;;;2.70;99.90;;;;;;5047839;28;20606;-80
2021/03/05 01:17:41;;;;;;;10.17;5.10;;;2.70;99.90;;;;;;5048458;28;20198;-80
2021/03/05 01:20:12;;;;;;;13.00;5.40;;;2.70;99.90;;;;;;5062841;28;20209;-80
2021/03/05 01:22:38;;;;;;;14.80;4.90;;;2.70;99.90;;;;;;5067918;28;20201;-81
2021/03/05 01:25:06;;;;;;;8.50;4.23;;;2.60;99.90;;;;;;5068889;28;20232;-80
2021/03/05 01:27:34;;;;;;;12.00;4.40;;;2.60;99.90;;;;;;5067592;28;20243;-82
2021/03/05 01:30:01;;;;;;;9.87;3.97;;;2.60;99.90;;;;;;5067906;28;20229;-80
2021/03/05 01:32:27;;;;;;;8.37;3.70;;;2.50;99.90;;;;;;5065487;28;20266;-82
2021/03/05 01:34:53;;;;;;;13.57;5.07;;;2.50;99.90;;;;;;5068195;28;20233;-80
2021/03/05 01:37:19;;;;;;;11.00;3.93;;;2.40;99.90;;;;;;5051047;28;20214;-81
2021/03/05 01:39:46;;;;;;;9.80;3.77;;;2.40;99.90;;;;;;5048957;28;20197;-79
2021/03/05 01:42:12;;;;;;;9.00;3.33;;;2.30;99.90;;;;;;5048847;28;20958;-79
2021/03/05 01:44:39;;;;;;;11.00;3.53;;;2.40;99.90;;;;;;5072078;28;20216;-81
2021/03/05 01:47:06;;;;;;;12.77;3.70;;;2.30;99.90;;;;;;5068113;28;20205;-80
2021/03/05 01:49:33;;;;;;;10.63;3.60;;;2.20;99.90;;;;;;5067166;28;20228;-80
2021/03/05 01:51:59;;;;;;;9.77;3.07;;;2.20;99.90;;;;;;5068296;28;20209;-80
2021/03/05 01:54:25;;;;;;;11.73;3.30;;;2.20;99.90;;;;;;5067881;28;20244;-80
2021/03/05 01:56:53;;;;;;;10.60;3.47;;;2.10;99.90;;;;;;5067660;28;20319;-79
2021/03/05 01:59:25;;;;;;;13.13;3.40;;;2.10;99.90;;;;;;5068496;28;20212;-82
2021/03/05 02:01:52;;;;;;;7.90;3.00;;;2.10;99.90;;;;;;5067363;28;20227;-80
2021/03/05 02:04:18;;;;;;;10.73;3.47;;;2.00;99.90;;;;;;5067785;28;20205;-80
2021/03/05 02:06:45;;;;;;;12.73;3.00;;;1.90;99.90;;;;;;5071635;28;20201;-80
2021/03/05 02:09:11;;;;;;;10.93;3.00;;;1.90;99.90;;;;;;5087998;28;20228;-81
2021/03/05 02:11:37;;;;;;;13.27;4.00;;;1.90;99.90;;;;;;5072378;28;20210;-81
2021/03/05 02:14:07;;;;;;;6.43;3.20;;;1.90;99.90;;;;;;5047012;28;20605;-80
2021/03/05 02:16:41;;;;;;;8.83;3.07;;;1.80;99.90;;;;;;5046887;28;20201;-80
2021/03/05 02:19:35;;;;;;;12.50;3.53;;;1.80;99.90;;;;;;5057647;28;20203;-80
2021/03/05 02:22:15;;;;;;;10.27;2.67;;;1.80;99.90;;;;;;5086834;28;20208;-80
2021/03/05 02:25:07;;;;;;;8.93;3.40;;;1.70;99.90;;;;;;5086117;28;20204;-81
2021/03/05 02:28:00;;;;;;;7.90;2.97;;;1.70;99.90;;;;;;5080261;28;20792;-81
2021/03/05 02:30:44;;;;;;;11.43;2.20;;;1.70;99.90;;;;;;5066025;28;20233;-81
2021/03/05 02:33:18;;;;;;;13.13;3.07;;;1.70;99.90;;;;;;5066142;28;20200;-81
2021/03/05 02:35:48;;;;;;;14.23;2.00;;;1.60;99.90;;;;;;5066920;28;20204;-81
2021/03/05 02:38:18;;;;;;;18.03;2.40;;;1.60;99.90;;;;;;5066134;28;20193;-81
2021/03/05 02:40:48;;;;;;;12.17;2.40;;;1.60;99.90;;;;;;5065655;28;20299;-81
2021/03/05 02:43:18;;;;;;;10.60;2.67;;;1.60;99.90;;;;;;5067293;28;20834;-81
2021/03/05 02:45:48;;;;;;;7.50;2.20;;;1.60;99.90;;;;;;5067054;28;20217;-81
2021/03/05 02:48:20;;;;;;;9.53;3.07;;;1.60;99.90;;;;;;5066422;28;20190;-80
2021/03/05 02:50:52;;;;;;;14.23;2.57;;;1.60;99.90;;;;;;5064516;28;20212;-80
2021/03/05 02:53:20;;;;;;;10.33;2.83;;;1.60;99.90;;;;;;5079369;28;20236;-81
2021/03/05 02:55:51;;;;;;;10.60;1.93;;;1.60;99.90;;;;;;5077621;28;20205;-81
2021/03/05 02:58:20;;;;;;;12.43;3.30;;;1.60;99.90;;;;;;5046604;28;20206;-80
2021/03/05 03:00:47;;;;;;;10.37;1.80;;;1.60;99.90;;;;;;5044916;28;20507;-80
2021/03/05 03:03:16;;;;;;;11.00;2.70;;;1.60;99.90;;;;;;5046749;28;20271;-81
2021/03/05 03:05:43;;;;;;;8.57;1.90;;;1.50;99.90;;;;;;5066350;28;20221;-79
2021/03/05 03:08:10;;;;;;;17.23;2.90;;;1.50;99.90;;;;;;5065901;28;20506;-81
2021/03/05 03:10:38;;;;;;;5.70;1.87;;;1.50;99.90;;;;;;5066917;28;20202;-80
2021/03/05 03:13:05;;;;;;;12.13;2.20;;;1.50;99.90;;;;;;5067862;28;20625;-80
2021/03/05 03:15:33;;;;;;;6.97;2.07;;;1.50;99.90;;;;;;5065695;28;20314;-80
2021/03/05 03:18:03;;;;;;;11.30;2.57;;;1.50;99.90;;;;;;5066111;28;20221;-81
2021/03/05 03:20:30;;;;;;;9.67;2.27;;;1.50;99.90;;;;;;5065290;28;20201;-80
2021/03/05 03:22:57;;;;;;;10.33;2.33;;;1.40;99.90;;;;;;5065418;28;20201;-80
2021/03/05 03:25:24;;;;;;;7.40;2.40;;;1.40;99.90;;;;;;5066744;28;20205;-81
2021/03/05 03:27:51;;;;;;;13.33;2.47;;;1.50;99.90;;;;;;5049509;28;20240;-80
2021/03/05 03:30:18;;;;;;;9.20;2.00;;;1.50;99.90;;;;;;5058111;28;20959;-81
2021/03/05 03:32:46;;;;;;;8.77;2.10;;;1.40;99.90;;;;;;5069624;28;20208;-80
2021/03/05 03:35:13;;;;;;;10.70;1.90;;;1.40;99.90;;;;;;5070208;28;20251;-80
2021/03/05 03:37:41;;;;;;;14.37;1.87;;;1.30;99.90;;;;;;5069015;28;20860;-80
2021/03/05 03:40:09;;;;;;;9.10;1.80;;;1.40;99.90;;;;;;5069640;28;20205;-81
2021/03/05 03:42:36;;;;;;;7.10;1.87;;;1.30;99.90;;;;;;5068925;28;20209;-80
2021/03/05 03:45:05;;;;;;;13.33;3.20;;;1.30;99.90;;;;;;5070151;28;20201;-80
2021/03/05 03:47:31;;;;;;;5.40;1.97;;;1.30;99.90;;;;;;5069340;28;20208;-80
2021/03/05 03:49:59;;;;;;;5.93;2.60;;;1.30;99.90;;;;;;5068024;28;20240;-81
2021/03/05 03:52:28;;;;;;;7.63;2.30;;;1.30;99.90;;;;;;5076739;28;20539;-81
2021/03/05 03:54:56;;;;;;;7.70;2.10;;;1.30;99.90;;;;;;5069426;28;20205;-81
2021/03/05 03:57:24;;;;;;;6.83;1.90;;;1.30;99.90;;;;;;5068933;28;20209;-81
2021/03/05 03:59:52;;;;;;;8.83;2.53;;;1.30;99.90;;;;;;5069591;28;20201;-81
2021/03/05 04:02:19;;;;;;;8.83;2.07;;;1.30;99.90;;;;;;5068600;28;20220;-80
2021/03/05 04:04:47;;;;;;;12.80;4.13;;;1.20;99.90;;;;;;5069133;28;20205;-80
2021/03/05 04:07:14;;;;;;;9.87;1.83;;;1.20;99.90;;;;;;5062033;28;20223;-79
2021/03/05 04:09:41;;;;;;;9.87;1.77;;;1.20;99.90;;;;;;5047924;28;20225;-80
2021/03/05 04:12:10;;;;;;;7.90;1.77;;;1.10;99.90;;;;;;5048035;28;20599;-79
2021/03/05 04:14:36;;;;;;;9.60;2.00;;;1.20;99.90;;;;;;5047855;28;20213;-80
2021/03/05 04:17:02;;;;;;;8.80;2.33;;;1.10;99.90;;;;;;5028895;28;20214;-79
2021/03/05 04:19:30;;;;;;;7.63;2.10;;;1.10;99.90;;;;;;5040052;28;20288;-80
2021/03/05 04:21:57;;;;;;;13.60;2.20;;;1.10;99.90;;;;;;5048874;28;20209;-79
2021/03/05 04:24:23;;;;;;;9.60;1.90;;;1.00;99.90;;;;;;5047751;28;20209;-81
2021/03/05 04:26:50;;;;;;;9.57;2.57;;;1.00;99.90;;;;;;5048375;28;20332;-81
2021/03/05 04:29:17;;;;;;;8.83;1.80;;;1.00;99.90;;;;;;5048727;28;20221;-81
2021/03/05 04:31:43;;;;;;;9.63;1.80;;;1.00;99.90;;;;;;5047693;28;20213;-81
2021/03/05 04:34:10;;;;;;;11.70;2.13;;;0.90;99.90;;;;;;5044785;28;20273;-80
2021/03/05 04:36:37;;;;;;;6.80;2.43;;;0.90;99.90;;;;;;5027795;28;20203;-80
2021/03/05 04:39:04;;;;;;;7.57;2.20;;;0.90;99.90;;;;;;5028910;28;20278;-79
2021/03/05 04:41:31;;;;;;;9.43;2.53;;;0.90;99.90;;;;;;5028230;28;20203;-80
2021/03/05 04:43:58;;;;;;;6.30;2.60;;;0.90;99.90;;;;;;5041332;28;20821;-80
2021/03/05 04:46:26;;;;;;;10.10;1.87;;;0.90;99.90;;;;;;5047715;28;20501;-80
2021/03/05 04:48:52;;;;;;;8.40;1.77;;;0.80;99.90;;;;;;5047856;28;20230;-81
2021/03/05 04:51:19;;;;;;;7.67;2.47;;;0.80;99.90;;;;;;5066204;28;20259;-81
2021/03/05 04:53:45;;;;;;;11.73;2.90;;;0.80;99.90;;;;;;5077459;28;20910;-80
2021/03/05 04:56:12;;;;;;;19.37;2.50;;;0.90;99.90;;;;;;5074605;28;20213;-80
2021/03/05 04:58:38;;;;;;;11.37;2.33;;;0.90;99.90;;;;;;5066641;28;20201;-82
2021/03/05 05:01:04;;;;;;;10.07;2.27;;;0.80;99.90;;;;;;5067025;28;20198;-80
2021/03/05 05:03:31;;;;;;;8.27;2.03;;;0.80;99.90;;;;;;5066651;28;20564;-80
2021/03/05 05:05:58;;;;;;;8.57;2.07;;;0.80;99.90;;;;;;5078445;28;20208;-81
2021/03/05 05:08:24;;;;;;;8.13;1.87;;;0.80;99.90;;;;;;5085269;28;20209;-81
2021/03/05 05:10:50;;;;;;;4.40;2.07;;;0.80;99.90;;;;;;5083604;28;20201;-81
2021/03/05 05:13:17;;;;;;;8.83;2.10;;;0.70;99.90;;;;;;5071362;28;20911;-82
2021/03/05 05:15:43;;;;;;;6.50;1.83;;;0.80;99.90;;;;;;5064153;28;20202;-81
2021/03/05 05:18:09;;;;;;;9.53;1.70;;;0.70;99.90;;;;;;5066428;28;20205;-81
2021/03/05 05:20:36;;;;;;;8.10;2.50;;;0.70;99.90;;;;;;5064847;28;20202;-81
2021/03/05 05:23:03;;;;;;;9.80;2.53;;;0.70;99.90;;;;;;5063835;28;20215;-82
2021/03/05 05:25:29;;;;;;;17.03;3.27;;;0.70;99.90;;;;;;5064678;28;20201;-81
2021/03/05 05:27:56;;;;;;;9.60;2.10;;;0.70;99.90;;;;;;5063276;28;20209;-81
2021/03/05 05:30:23;;;;;;;9.07;1.93;;;0.70;99.90;;;;;;5065297;28;20251;-80
2021/03/05 05:32:49;;;;;;;8.40;2.53;;;0.70;99.90;;;;;;5059320;28;20205;-81
2021/03/05 05:35:16;;;;;;;9.70;2.30;;;0.70;99.90;;;;;;5046775;28;20508;-81
2021/03/05 05:37:43;;;;;;;9.80;2.80;;;0.80;99.90;;;;;;5046559;28;20190;-81
2021/03/05 05:40:11;;;;;;;10.87;2.13;;;0.80;99.90;;;;;;5046734;28;20201;-81
2021/03/05 05:42:37;;;;;;;12.60;2.67;;;0.80;99.90;;;;;;5055667;28;20208;-81
2021/03/05 05:45:04;;;;;;;8.23;1.90;;;0.80;99.90;;;;;;5066256;28;20212;-81
2021/03/05 05:47:34;;;;;;;8.80;2.07;;;0.80;99.90;;;;;;5065277;28;20201;-81
2021/03/05 05:50:04;;;;;;;8.00;3.03;;;0.80;99.90;;;;;;5062486;28;20381;-82
2021/03/05 05:52:31;;;;;;;12.50;2.93;;;0.80;99.90;;;;;;5045413;28;20213;-82
2021/03/05 05:55:01;;;;;;;10.03;3.10;;;0.90;99.90;;;;;;5046337;28;20684;-80
2021/03/05 05:57:28;;;;;;;12.10;2.57;;;0.90;99.90;;;;;;5045962;28;20505;-81
2021/03/05 05:59:57;;;;;;;10.93;2.10;;;0.90;99.90;;;;;;5046651;28;20213;-80
2021/03/05 06:02:24;;;;;;;7.47;2.03;;;1.00;99.90;;;;;;5046205;28;20861;-81
2021/03/05 06:04:55;;;;;;;5.93;2.03;;;1.00;99.90;;;;;;5061517;28;20208;-81
2021/03/05 06:07:22;;;;;;;11.03;3.47;;;1.00;99.90;;;;;;5085533;28;20212;-80
2021/03/05 06:09:50;;;;;;;15.23;3.03;;;1.00;99.90;;;;;;5085784;28;20220;-81
2021/03/05 06:12:18;;;;;;;12.77;3.20;;;1.00;99.90;;;;;;5085995;28;20250;-81
2021/03/05 06:14:46;;;;;;;8.43;2.43;;;1.00;99.90;;;;;;5076015;28;20210;-81
2021/03/05 06:17:13;;;;;;;13.80;3.13;;;1.00;99.90;;;;;;5045632;28;20665;-81
2021/03/05 06:19:40;;;;;;;7.80;3.30;;;1.00;99.90;;;;;;5045804;28;20205;-81
2021/03/05 06:22:19;;;;;;;9.47;2.40;;;1.00;99.90;;;;;;5047128;28;20213;-82
2021/03/05 06:24:46;;;;;;;10.67;2.77;;;1.00;99.90;;;;;;5045459;28;20288;-83
2021/03/05 06:27:13;;;;;;;5.13;2.00;;;1.00;99.90;;;;;;5046204;28;20237;-79
2021/03/05 06:29:43;;;;;;;10.97;2.60;;;1.00;99.90;;;;;;5052790;28;20629;-81
2021/03/05 06:32:10;;;;;;;13.63;3.87;;;1.00;99.90;;;;;;5065623;28;20217;-80
2021/03/05 06:34:46;;;;;;;16.23;2.53;;;0.90;99.90;;;;;;5062638;28;20229;-81
2021/03/05 06:37:13;;;;;;;16.53;2.87;;;0.90;99.90;;;;;;5045904;28;20202;-80
2021/03/05 06:39:39;;;;;;;11.10;3.33;;;0.90;99.90;;;;;;5044206;28;20205;-82
2021/03/05 06:42:07;;;;;;;8.70;2.03;;;0.90;99.90;;;;;;5045184;28;20206;-81
2021/03/05 06:44:36;;;;;;;4.20;1.60;;;0.80;99.90;;;;;;5062061;28;20205;-81
2021/03/05 06:47:11;;;;;;;8.67;2.23;;;0.80;99.90;;;;;;5065041;28;20670;-81
2021/03/05 06:49:37;;;;;;;8.07;3.30;;;0.80;99.90;;;;;;5064718;28;20698;-81
2021/03/05 06:52:04;;;;;;;9.47;3.00;;;0.80;99.90;;;;;;5065303;28;20219;-80
2021/03/05 06:54:33;;;;;;;9.80;3.17;;;0.70;99.90;;;;;;5065542;28;20290;-80
2021/03/05 06:57:00;;;;;;;5.33;2.47;;;0.70;99.90;;;;;;5065603;28;20248;-79
2021/03/05 06:59:35;;;;;;;8.03;2.37;;;0.70;99.90;;;;;;5066278;28;20197;-82
2021/03/05 07:02:01;;;;;;;8.50;2.27;;;0.70;99.90;;;;;;5069259;28;20200;-81
2021/03/05 07:04:30;;;;;;;4.80;1.70;;;0.70;99.90;;;;;;5076484;28;20661;-80
2021/03/05 07:06:58;;;;;;;6.60;2.13;;;0.60;99.90;;;;;;5089200;28;20200;-80
2021/03/05 07:09:27;;;;;;;9.10;2.63;;;0.60;99.90;;;;;;5088088;28;20231;-80
2021/03/05 07:11:54;;;;;;;10.00;2.53;;;0.60;99.90;;;;;;5087880;28;20197;-79
2021/03/05 07:14:25;;;;;;;7.67;2.80;;;0.60;99.90;;;;;;5087743;28;20208;-80
2021/03/05 07:16:54;;;;;;;7.43;2.80;;;0.60;99.90;;;;;;5089399;28;20847;-83
2021/03/05 07:19:22;;;;;;;8.10;3.10;;;0.60;99.90;;;;;;5079723;28;20198;-80
2021/03/05 07:21:50;;;;;;;9.20;2.97;;;0.60;99.90;;;;;;5047723;28;20198;-81
2021/03/05 07:24:18;;;;;;;4.60;2.03;;;0.60;99.90;;;;;;5048360;28;20202;-81
2021/03/05 07:27:03;;;;;;;11.63;2.93;;;0.60;99.90;;;;;;5049040;28;20198;-83
2021/03/05 07:29:33;;;;;;;8.33;2.23;;;0.60;99.90;;;;;;5067760;22;20228;-82
2021/03/05 07:32:08;;;;;;;7.30;3.10;;;0.60;99.90;;;;;;5048377;28;20510;-81
2021/03/05 07:34:45;;;;;;;10.07;3.83;;;0.60;99.90;;;;;;5046753;28;20237;-83
2021/03/05 07:37:13;;;;;;;10.20;4.33;;;0.70;99.90;;;;;;5048833;28;20224;-81
2021/03/05 07:39:42;;;;;;;5.33;3.63;;;0.70;99.90;;;;;;5045170;28;20210;-83
2021/03/05 07:42:10;;;;;;;8.17;3.60;;;0.70;99.90;;;;;;5027522;28;20288;-83
2021/03/05 07:44:37;;;;;;;9.60;3.30;;;0.80;99.90;;;;;;5033118;28;20645;-83
2021/03/05 07:47:08;;;;;;;7.17;2.43;;;0.90;99.90;;;;;;5047982;28;20253;-83
2021/03/05 07:49:36;;;;;;;17.60;3.13;;;0.90;99.90;;;;;;5032670;28;20241;-81
2021/03/05 07:52:03;;;;;;;10.87;3.00;;;1.00;99.90;;;;;;5028430;28;20222;-81
2021/03/05 07:54:45;;;;;;;8.80;3.80;;;1.10;99.90;;;;;;5027860;28;20203;-82
2021/03/05 07:57:48;;;;;;;8.20;3.33;;;1.20;99.90;;;;;;5040098;28;20271;-82
2021/03/05 08:00:44;;;;;;;12.97;3.30;;;1.30;99.90;;;;;;5010993;28;20209;-80
2021/03/05 08:03:10;;;;;;;12.10;3.73;;;1.40;99.90;;;;;;5021794;28;20235;-80
2021/03/05 08:05:39;;;;;;;8.67;3.07;;;1.60;99.90;;;;;;5027861;28;20213;-80
2021/03/05 08:08:14;;;;;;;10.83;2.80;;;1.70;99.90;;;;;;5028250;28;20195;-80
2021/03/05 08:10:43;;;;;;;19.60;2.73;;;1.70;99.90;;;;;;5025229;28;20883;-80
2021/03/05 08:13:44;;;;;;;9.83;2.77;;;1.80;99.90;;;;;;5028322;28;20199;-80
2021/03/05 08:19:38;;;;;;;7.67;2.90;;;2.20;99.90;;;;;;4956989;28;20201;-82
2021/03/05 08:22:04;;;;;;;8.00;1.63;;;2.40;99.90;;;;;;5026056;28;20256;-80
2021/03/05 08:24:33;;;;;;;8.97;1.83;;;2.50;99.90;;;;;;5028054;28;20810;-81
2021/03/05 08:27:03;;;;;;;6.57;2.50;;;2.50;99.90;;;;;;5027317;28;20595;-79
2021/03/05 08:29:48;;;;;;;8.03;1.60;;;2.60;99.90;;;;;;5026450;28;20222;-78
2021/03/05 08:32:59;;;;;;;3.50;1.30;;;2.70;99.90;;;;;;5027362;28;20289;-79
2021/03/05 08:35:49;;;;;;;10.23;2.37;;;2.80;99.90;;;;;;5035234;28;20221;-79
2021/03/05 08:38:21;;;;;;;6.70;1.50;;;2.80;99.90;;;;;;5047500;28;20605;-79
2021/03/05 08:40:50;;;;;;;6.53;1.70;;;3.00;99.90;;;;;;5046686;28;20202;-79
2021/03/05 08:43:27;;;;;;;9.83;2.20;;;3.00;99.90;;;;;;5044985;28;20958;-80
2021/03/05 08:45:55;;;;;;;5.30;1.17;;;3.00;99.90;;;;;;5041059;28;20200;-79
2021/03/05 08:48:28;;;;;;;6.03;1.43;;;3.10;99.90;;;;;;5046610;28;20194;-80
2021/03/05 08:51:01;;;;;;;8.50;1.60;;;3.20;99.90;;;;;;5042698;28;20216;-80
2021/03/05 08:53:28;;;;;;;8.20;1.53;;;3.40;99.90;;;;;;5027159;28;20552;-82
2021/03/05 08:55:54;;;;;;;8.80;1.33;;;3.40;99.90;;;;;;5028027;28;20202;-80
2021/03/05 08:58:22;;;;;;;4.57;1.20;;;3.60;99.90;;;;;;5024758;28;20210;-81
2021/03/05 09:00:49;;;;;;;10.37;1.40;;;3.60;99.90;;;;;;5023531;28;20234;-80
2021/03/05 09:03:17;;;;;;;7.83;1.50;;;3.60;99.90;;;;;;5026720;28;20202;-81
2021/03/05 09:05:45;;;;;;;4.87;1.60;;;3.70;99.90;;;;;;5027598;28;20260;-81
2021/03/05 09:08:12;;;;;;;5.83;1.03;;;3.80;99.90;;;;;;5028934;28;20611;-80
2021/03/05 09:10:42;;;;;;;7.90;1.83;;;3.80;99.90;;;;;;5045877;28;20221;-81
2021/03/05 09:13:10;;;;;;;4.40;1.57;;;3.90;99.90;;;;;;5047477;28;20202;-83
2021/03/05 09:15:51;;;;;;;5.73;1.20;;;3.90;99.90;;;;;;5045256;28;20210;-83
2021/03/05 09:18:19;;;;;;;3.77;1.20;;;4.00;99.90;;;;;;5048299;28;20242;-83
2021/03/05 09:20:47;;;;;;;6.30;1.00;;;4.00;99.90;;;;;;5047695;28;20202;-83
2021/03/05 09:23:25;;;;;;;6.20;1.00;;;4.10;99.90;;;;;;5045580;28;20202;-85
2021/03/05 09:25:53;;;;;;;3.00;1.00;;;4.20;99.90;;;;;;5030494;28;20222;-83
2021/03/05 09:28:21;;;;;;;1.07;0.70;;;4.30;99.90;;;;;;5028284;28;20213;-83
2021/03/05 09:30:50;;;;;;;3.10;1.17;;;4.30;99.90;;;;;;5041317;28;20245;-84
2021/03/05 09:33:18;;;;;;;4.97;1.00;;;4.40;99.90;;;;;;5046620;28;20205;-83
2021/03/05 09:35:44;;;;;;;5.70;1.00;;;4.40;99.90;;;;;;5047083;28;20228;-82
2021/03/05 09:38:16;;;;;;;12.87;2.23;;;4.50;99.90;;;;;;5045344;28;20209;-82
2021/03/05 09:40:43;;;;;;;4.83;1.30;;;4.60;99.90;;;;;;5047740;28;20198;-81
2021/03/05 09:43:16;;;;;;;5.73;1.40;;;4.70;99.90;;;;;;5047619;28;20198;-80
2021/03/05 09:45:47;;;;;;;3.60;1.27;;;4.80;99.90;;;;;;5040904;28;20202;-82
2021/03/05 09:48:29;;;;;;;4.40;1.10;;;4.90;99.90;;;;;;5027294;28;20301;-80
2021/03/05 09:50:57;;;;;;;3.83;1.50;;;5.00;99.90;;;;;;5031289;28;20268;-80
2021/03/05 09:53:29;;;;;;;5.50;1.17;;;5.10;99.90;;;;;;5047353;28;20225;-81
2021/03/05 09:55:58;;;;;;;3.57;1.00;;;5.20;99.90;;;;;;5046859;28;20215;-81
2021/03/05 09:58:24;;;;;;;5.57;1.77;;;5.40;99.90;;;;;;5047186;28;20209;-80
2021/03/05 10:00:52;;;;;;;5.00;1.20;;;5.40;99.90;;;;;;5047737;28;20602;-81
2021/03/05 10:03:20;;;;;;;4.17;0.90;;;5.50;99.90;;;;;;5046631;28;20958;-82
2021/03/05 10:05:47;;;;;;;5.57;1.00;;;5.60;99.90;;;;;;5046825;28;20272;-82
2021/03/05 10:08:19;;;;;;;4.17;1.00;;;5.70;99.90;;;;;;5048007;28;20202;-84
2021/03/05 10:11:00;;;;;;;2.93;1.00;;;5.70;99.90;;;;;;5045266;28;20226;-82
2021/03/05 10:13:44;;;;;;;6.23;0.80;;;5.80;99.90;;;;;;5027170;28;20206;-81
2021/03/05 10:16:14;;;;;;;2.87;0.90;;;6.00;99.90;;;;;;5026954;28;20546;-80
2021/03/05 10:18:43;;;;;;;5.30;1.07;;;6.10;99.90;;;;;;5027550;28;20498;-81
2021/03/05 10:21:10;;;;;;;4.10;1.10;;;6.20;99.90;;;;;;5036450;28;20206;-81
2021/03/05 10:23:38;;;;;;;4.83;1.03;;;6.40;99.90;;;;;;5045189;28;20228;-81
2021/03/05 10:26:11;;;;;;;3.60;0.90;;;6.40;99.90;;;;;;5045111;28;20237;-82
2021/03/05 10:28:39;;;;;;;3.70;1.20;;;6.50;99.90;;;;;;5014267;28;20214;-77
2021/03/05 10:31:05;;;;;;;2.70;1.77;;;6.60;99.90;;;;;;5022521;28;20231;-79
2021/03/05 10:33:40;;;;;;;8.77;1.40;;;6.70;99.90;;;;;;5021418;28;20239;-80
2021/03/05 10:36:08;;;;;;;2.70;1.20;;;6.90;99.90;;;;;;5022515;28;20202;-80
2021/03/05 10:38:35;;;;;;;3.63;0.97;;;7.00;99.90;;;;;;5020021;28;20199;-80
2021/03/05 10:41:02;;;;;;;3.33;1.20;;;7.10;99.90;;;;;;5021272;28;20513;-80
2021/03/05 10:43:28;;;;;;;4.20;1.63;;;7.10;99.90;;;;;;5020981;28;20217;-79
2021/03/05 10:45:55;;;;;;;7.27;1.40;;;7.20;99.90;;;;;;5035556;28;20210;-78
2021/03/05 10:48:21;;;;;;;3.60;1.33;;;7.30;99.90;;;;;;5041933;28;20202;-81
2021/03/05 10:50:48;;;;;;;3.53;1.17;;;7.40;99.90;;;;;;5022627;28;20229;-79
2021/03/05 10:53:15;;;;;;;2.87;0.80;;;7.50;99.90;;;;;;5022561;28;20843;-79
2021/03/05 10:55:41;;;;;;;3.07;0.87;;;7.50;99.90;;;;;;5021671;28;20839;-80
2021/03/05 10:58:08;;;;;;;2.10;0.90;;;7.50;99.90;;;;;;5022639;28;20268;-79
2021/03/05 11:00:34;;;;;;;3.43;1.10;;;7.60;99.90;;;;;;5027993;28;20237;-79
2021/03/05 11:03:00;;;;;;;3.23;0.77;;;7.70;99.90;;;;;;5042263;28;20688;-80
2021/03/05 11:05:27;;;;;;;4.70;1.47;;;7.90;99.90;;;;;;5042144;28;20209;-77
2021/03/05 11:07:54;;;;;;;3.83;1.40;;;8.00;99.90;;;;;;5041776;28;20236;-80
2021/03/05 11:10:22;;;;;;;3.87;1.17;;;8.10;99.90;;;;;;5043052;28;20225;-77
2021/03/05 11:12:49;;;;;;;3.60;0.73;;;8.30;99.90;;;;;;5040748;28;20214;-77
2021/03/05 11:15:17;;;;;;;4.73;0.90;;;8.20;99.90;;;;;;5041777;28;20197;-78
2021/03/05 11:17:44;;;;;;;4.00;0.90;;;8.10;99.90;;;;;;5041058;28;20209;-77
2021/03/05 11:20:11;;;;;;;5.80;1.07;;;8.30;99.90;;;;;;5037153;28;20207;-78
2021/03/05 11:22:38;;;;;;;3.93;0.90;;;8.40;99.90;;;;;;5022119;28;20265;-81
2021/03/05 11:25:06;;;;;;;3.80;0.87;;;8.60;99.90;;;;;;5029170;28;20283;-79
2021/03/05 11:27:35;;;;;;;5.67;1.00;;;8.50;99.90;;;;;;5040714;28;20194;-77
2021/03/05 11:30:03;;;;;;;1.30;0.70;;;8.50;99.90;;;;;;5042194;28;20252;-77
2021/03/05 11:32:32;;;;;;;3.57;0.90;;;8.40;99.90;;;;;;5043489;28;20201;-81
2021/03/05 11:34:58;;;;;;;3.70;1.07;;;8.20;99.90;;;;;;5046559;28;20229;-79
2021/03/05 11:37:35;;;;;;;5.20;1.30;;;8.10;99.90;;;;;;5042373;28;20205;-80
2021/03/05 11:40:01;;;;;;;6.47;1.23;;;7.80;99.90;;;;;;5042546;28;20247;-80
2021/03/05 11:42:28;;;;;;;4.00;1.20;;;7.80;99.90;;;;;;5041499;28;20202;-79
2021/03/05 11:44:55;;;;;;;2.70;0.90;;;8.00;99.90;;;;;;5035121;28;20261;-81
2021/03/05 11:47:21;;;;;;;4.43;1.00;;;8.30;99.90;;;;;;5041871;28;20334;-80
2021/03/05 11:49:47;;;;;;;4.13;1.10;;;8.50;99.90;;;;;;5025633;28;20238;-80
2021/03/05 11:52:13;;;;;;;3.37;0.90;;;8.60;99.90;;;;;;5026255;28;20210;-80
2021/03/05 11:54:40;;;;;;;4.37;1.53;;;8.50;99.90;;;;;;5025712;28;20260;-82
2021/03/05 11:57:07;;;;;;;2.50;1.10;;;8.80;99.90;;;;;;5027551;28;20202;-82
2021/03/05 11:59:33;;;;;;;5.17;1.30;;;9.00;99.90;;;;;;5027997;28;20202;-85
2021/03/05 12:02:00;;;;;;;4.30;1.00;;;9.10;99.90;;;;;;5027372;28;20210;-82
2021/03/05 12:04:26;;;;;;;4.70;1.50;;;9.20;99.90;;;;;;5045289;28;20264;-84
2021/03/05 12:06:53;;;;;;;5.13;1.50;;;9.10;99.90;;;;;;5046612;28;20217;-82
2021/03/05 12:09:19;;;;;;;5.37;1.30;;;8.80;99.90;;;;;;5048518;28;20242;-85
2021/03/05 12:11:45;;;;;;;5.03;1.10;;;8.70;99.90;;;;;;5049308;28;20264;-83
2021/03/05 12:14:11;;;;;;;7.43;1.50;;;8.40;99.90;;;;;;5050226;28;20205;-83
2021/03/05 12:16:38;;;;;;;4.23;1.00;;;8.10;99.90;;;;;;5032161;28;20210;-82
2021/03/05 12:19:05;;;;;;;4.10;1.20;;;8.00;99.90;;;;;;5031022;28;20318;-83
2021/03/05 12:21:31;;;;;;;6.40;1.17;;;8.00;99.90;;;;;;5029247;28;20222;-82
2021/03/05 12:23:57;;;;;;;9.20;2.07;;;7.90;99.90;;;;;;5028688;28;20434;-82
2021/03/05 12:26:24;;;;;;;3.43;1.53;;;7.90;99.90;;;;;;5031395;28;20213;-83
2021/03/05 12:28:50;;;;;;;2.83;1.00;;;7.80;99.90;;;;;;5049361;28;20244;-84
2021/03/05 12:31:17;;;;;;;4.30;1.57;;;7.70;99.90;;;;;;5049564;28;20234;-86
2021/03/05 12:33:43;;;;;;;5.47;1.10;;;7.80;99.90;;;;;;5035993;28;20550;-84
2021/03/05 12:36:12;;;;;;;5.47;1.90;;;8.10;99.90;;;;;;5029992;28;20238;-83
2021/03/05 12:38:38;;;;;;;2.30;0.90;;;8.40;99.90;;;;;;5028008;28;20837;-84
2021/03/05 12:41:05;;;;;;;5.33;1.23;;;8.50;99.90;;;;;;5026695;28;20206;-84
2021/03/05 12:43:31;;;;;;;1.87;0.80;;;8.50;99.90;;;;;;5023149;28;20207;-81
2021/03/05 12:45:58;;;;;;;3.77;1.13;;;8.20;99.90;;;;;;5044088;28;20213;-82
2021/03/05 12:48:24;;;;;;;5.40;1.23;;;8.10;99.90;;;;;;5048680;28;20563;-81
2021/03/05 12:50:50;;;;;;;5.10;1.20;;;8.20;99.90;;;;;;5044353;28;20230;-85
2021/03/05 12:53:18;;;;;;;3.97;1.33;;;8.20;99.90;;;;;;5028508;28;20210;-82
2021/03/05 12:55:44;;;;;;;3.93;1.03;;;8.40;99.90;;;;;;5028345;28;20301;-79
2021/03/05 12:58:10;;;;;;;3.27;0.80;;;8.20;99.90;;;;;;5027557;28;20206;-80
2021/03/05 13:00:37;;;;;;;3.80;1.50;;;8.20;99.90;;;;;;5025831;28;20216;-79
2021/03/05 13:03:03;;;;;;;6.47;1.23;;;8.00;99.90;;;;;;5026175;28;20732;-81
2021/03/05 13:05:30;;;;;;;2.23;0.80;;;8.10;99.90;;;;;;5027131;28;20205;-82